Flight Track Log - Related Links

Times and Time Zones

All times are in EDT time to prevent confusion due to time zone crossing. See the N6792M flight status page for this flight to view local times or setup timezone preferences in your user account.

Time Position Orientation Groundspeed Altitude Reporting Facility
EDT Latitude Longitude Course Direction KTS MPH feet Rate Location/Type
Tue 03:33:47 PM 42.1500 -87.9167 323° Northwest 85 98 1,700  Level Chicago TRACON
Tue 03:34:47 PM 42.1667 -87.9333 323° Northwest 83 96 2,500 667 Climbing Chicago TRACON
Tue 03:35:17 PM 42.1736 -87.9356 347° North 95 109 2,700 587 Climbing Chicago Center
Tue 03:36:19 PM 42.1933 -87.9492 333° Northwest 84 97 3,400 677 Climbing Chicago Center
Tue 03:37:21 PM 42.2131 -87.9611 336° Northwest 83 96 4,100 677 Climbing Chicago Center
Tue 03:38:23 PM 42.2392 -87.9506 17° North 82 94 4,800 629 Climbing Chicago Center
Tue 03:39:25 PM 42.2625 -87.9497 North 85 98 5,400 576 Climbing Chicago Center
Tue 03:40:28 PM 42.2889 -87.9431 11° North 93 107 6,000 336 Climbing Chicago Center
Tue 03:41:30 PM 42.3200 -87.9358 10° North 108 124 6,100  Climbing Chicago Center
Tue 03:42:32 PM 42.3561 -87.9275 10° North 125 144 6,000 -48 Descending Chicago Center
Tue 03:43:34 PM 42.3989 -87.9231 North 132 152 6,000  Level Chicago Center
Tue 03:44:36 PM 42.4339 -87.9344 346° North 129 148 6,000  Level Chicago Center
Tue 03:45:38 PM 42.4683 -87.9367 357° North 126 145 6,000  Level Chicago Center
Tue 03:46:40 PM 42.5031 -87.9364 360° North 124 143 6,000  Level Chicago Center
Tue 03:47:42 PM 42.5369 -87.9406 355° North 125 144 6,000  Level Chicago Center
Tue 03:48:44 PM 42.5717 -87.9378 North 124 143 6,000 48 Level Chicago Center
Tue 03:49:46 PM 42.6119 -87.9367 North 125 144 6,100 48 Climbing Chicago Center
Tue 03:50:48 PM 42.6464 -87.9322 North 124 143 6,100  Level Chicago Center
Tue 03:51:50 PM 42.6806 -87.9256 North 125 144 6,100  Level Chicago Center
Tue 03:52:53 PM 42.7133 -87.9131 16° North 123 142 6,100  Level Chicago Center
Tue 03:53:55 PM 42.7467 -87.9064 North 122 140 6,100  Level Chicago Center
Tue 03:54:57 PM 42.7850 -87.8978 North 119 137 6,100 48 Level Chicago Center
Tue 03:55:59 PM 42.8178 -87.8864 14° North 119 137 6,200  Climbing Chicago Center
Tue 03:57:01 PM 42.8514 -87.8767 12° North 122 140 6,100 -48 Descending Chicago Center
Tue 03:58:03 PM 42.8842 -87.8711 North 120 138 6,100  Level Chicago Center
Tue 03:59:05 PM 42.9175 -87.8650 North 120 138 6,100  Level Chicago Center
Tue 04:00:07 PM 42.9575 -87.8558 10° North 125 144 6,100  Level Chicago Center
Tue 04:01:09 PM 42.9914 -87.8475 10° North 124 143 6,100  Level Chicago Center
Tue 04:02:12 PM 43.0247 -87.8347 16° North 124 143 6,100 -48 Level Chicago Center
Tue 04:03:13 PM 43.0572 -87.8261 11° North 122 140 6,000 -49 Descending Chicago Center
Tue 04:04:15 PM 43.0892 -87.8164 13° North 119 137 6,000 48 Level Chicago Center
Tue 04:05:18 PM 43.1272 -87.8033 14° North 120 138 6,100 48 Climbing Chicago Center
Tue 04:06:20 PM 43.1578 -87.7900 18° North 118 136 6,100  Level Chicago Center
Tue 04:07:22 PM 43.1914 -87.7797 13° North 121 139 6,100  Level Chicago Center
Tue 04:08:24 PM 43.2242 -87.7672 16° North 122 140 6,100  Level Chicago Center
Tue 04:09:26 PM 43.2572 -87.7522 18° North 124 143 6,100  Level Chicago Center
Tue 04:10:28 PM 43.2964 -87.7414 11° North 123 142 6,100  Level Chicago Center
Tue 04:11:30 PM 43.3297 -87.7331 10° North 123 142 6,100  Level Chicago Center
Tue 04:12:32 PM 43.3628 -87.7217 14° North 122 140 6,100 -48 Level Chicago Center
Tue 04:13:34 PM 43.3969 -87.7108 13° North 125 144 6,000  Descending Chicago Center
Tue 04:14:36 PM 43.4300 -87.6994 14° North 124 143 6,100 48 Climbing Chicago Center
Tue 04:15:38 PM 43.4692 -87.6875 12° North 123 142 6,100 -48 Level Chicago Center
Tue 04:16:40 PM 43.5028 -87.6781 12° North 124 143 6,000 -48 Descending Chicago Center
Tue 04:17:42 PM 43.5356 -87.6661 15° North 123 142 6,000  Level Chicago Center
Tue 04:18:45 PM 43.5692 -87.6561 12° North 123 142 6,000 48 Level Chicago Center
Tue 04:19:47 PM 43.6025 -87.6464 12° North 122 140 6,100 48 Climbing Chicago Center
Tue 04:20:49 PM 43.6428 -87.6383 North 124 143 6,100  Level Chicago Center
Tue 04:21:51 PM 43.6764 -87.6289 11° North 124 143 6,100 -48 Level Chicago Center
Tue 04:22:53 PM 43.7094 -87.6219 North 123 142 6,000  Descending Chicago Center
Tue 04:23:55 PM 43.7425 -87.6117 13° North 122 140 6,100 48 Climbing Chicago Center
Tue 04:24:57 PM 43.7775 -87.6028 10° North 125 144 6,100 -48 Level Chicago Center
Tue 04:25:59 PM 43.8181 -87.5936 North 127 146 6,000  Descending Chicago Center
Tue 04:27:01 PM 43.8539 -87.5889 North 129 148 6,100  Climbing Chicago Center
Tue 04:28:03 PM 43.8889 -87.5831 North 128 147 6,000  Descending Chicago Center
Tue 04:28:36 PM 43.9053 -87.5778 13° North 128 147 6,100 63 Climbing Minneapolis Center
Tue 04:29:38 PM 43.9389 -87.5639 17° North 127 146 6,100  Level Minneapolis Center
Tue 04:30:40 PM 43.9794 -87.5517 12° North 129 148 6,100  Level Minneapolis Center
Tue 04:31:42 PM 44.0144 -87.5419 11° North 129 148 6,100 -48 Level Minneapolis Center
Tue 04:32:45 PM 44.0494 -87.5306 13° North 128 147 6,000  Descending Minneapolis Center
Tue 04:33:47 PM 44.0850 -87.5214 10° North 129 148 6,100 48 Climbing Minneapolis Center
Tue 04:34:49 PM 44.1194 -87.5086 15° North 128 147 6,100 -48 Level Minneapolis Center
Tue 04:35:51 PM 44.1611 -87.4958 12° North 130 150 6,000  Descending Minneapolis Center
Tue 04:36:52 PM 44.1906 -87.4872 12° North 130 150 6,100 48 Climbing Minneapolis Center
Tue 04:37:55 PM 44.2322 -87.4758 11° North 130 150 6,100  Level Minneapolis Center
Tue 04:38:57 PM 44.2700 -87.4664 10° North 133 153 6,100 -48 Level Minneapolis Center
Tue 04:39:59 PM 44.3044 -87.4533 15° North 133 153 6,000  Descending Minneapolis Center
Tue 04:41:01 PM 44.3450 -87.4400 13° North 128 147 6,100  Climbing Minneapolis Center
Tue 04:42:03 PM 44.3811 -87.4292 12° North 131 151 6,000  Descending Minneapolis Center
Tue 04:43:05 PM 44.4175 -87.4175 13° North 133 153 6,100 48 Climbing Minneapolis Center
Tue 04:44:07 PM 44.4506 -87.4014 19° North 128 147 6,100  Level Minneapolis Center
Tue 04:45:09 PM 44.4850 -87.3889 15° North 130 150 6,100  Level Minneapolis Center
Tue 04:46:11 PM 44.5203 -87.3806 10° North 130 150 6,100 -48 Level Minneapolis Center
Tue 04:47:13 PM 44.5636 -87.3675 12° North 131 151 6,000 -48 Descending Minneapolis Center
Tue 04:48:16 PM 44.6006 -87.3569 11° North 133 153 6,000  Level Minneapolis Center
Tue 04:49:18 PM 44.6350 -87.3456 13° North 131 151 6,000 48 Level Minneapolis Center
Tue 04:50:20 PM 44.6703 -87.3325 15° North 130 150 6,100 49 Climbing Minneapolis Center
Tue 04:51:21 PM 44.6972 -87.3228 14° North 130 150 6,100  Level Minneapolis Center
Tue 04:53:00 PM 44.7483 -87.2846 28° Northeast  Level FlightAware Approximate
Tue 05:00:00 PM 44.9907 -87.2065 10° North  Level FlightAware Approximate
Tue 05:01:00 PM 45.0253 -87.1979 10° North  Level FlightAware Approximate
Tue 05:02:00 PM 45.0598 -87.1892 10° North  Level FlightAware Approximate
Tue 05:03:00 PM 45.0945 -87.1833 North  Level FlightAware Approximate
Tue 05:04:00 PM 45.1296 -87.1833 360° North  Level FlightAware Approximate
Tue 05:05:00 PM 45.1333 -87.1833 North  Level FlightAware Approximate
Tue 05:06:00 PM 45.1354 -87.1879 North  Level Estimated
Tue 05:07:00 PM 45.1333 -87.1833 North  Level FlightAware Approximate
Tue 05:08:00 PM 45.1354 -87.1879 North  Level Estimated
Tue 05:09:00 PM 45.1333 -87.1833 North  Level FlightAware Approximate
Tue 05:10:00 PM 45.1354 -87.1879 North  Level Estimated

Login

Don't have an account? Register now (free) for customized features, flight alerts, and more!